createdAt,value
2022-10-01T00:00:38.872Z,10.76
2022-10-01T00:01:38.889Z,10.75
2022-10-01T00:02:38.916Z,10.75
2022-10-01T00:03:38.826Z,10.75
2022-10-01T00:04:38.817Z,10.75
2022-10-01T00:05:38.803Z,10.76
2022-10-01T00:06:38.825Z,10.75
2022-10-01T00:07:38.785Z,10.72
2022-10-01T00:08:38.776Z,10.74
2022-10-01T00:09:38.772Z,10.75
2022-10-01T00:10:38.756Z,10.72
2022-10-01T00:11:38.755Z,10.74
2022-10-01T00:12:38.726Z,10.71
2022-10-01T00:13:38.717Z,10.68
2022-10-01T00:14:38.703Z,10.69
2022-10-01T00:15:38.692Z,10.69
2022-10-01T00:16:38.737Z,10.71
2022-10-01T00:17:38.687Z,10.68
2022-10-01T00:18:38.662Z,10.64
2022-10-01T00:19:38.645Z,10.67
2022-10-01T00:20:38.649Z,10.68
2022-10-01T00:21:38.629Z,10.68
2022-10-01T00:22:38.619Z,10.69
2022-10-01T00:23:38.627Z,10.71
2022-10-01T00:24:38.605Z,10.69
2022-10-01T00:25:38.587Z,10.68
2022-10-01T00:26:38.593Z,10.67
2022-10-01T00:27:38.577Z,10.64
2022-10-01T00:28:38.567Z,10.64
2022-10-01T00:29:38.536Z,10.64
2022-10-01T00:30:40.539Z,10.67
2022-10-01T00:31:39.055Z,10.67
2022-10-01T00:32:38.507Z,10.68
2022-10-01T00:33:38.505Z,10.67
2022-10-01T00:34:38.504Z,10.67
2022-10-01T00:35:38.471Z,10.64
2022-10-01T00:36:38.465Z,10.64
2022-10-01T00:37:38.456Z,10.64
2022-10-01T00:38:38.442Z,10.63
2022-10-01T00:39:38.442Z,10.63
2022-10-01T00:40:38.426Z,10.61
2022-10-01T00:41:38.422Z,10.61
2022-10-01T00:42:38.401Z,10.60
2022-10-01T00:43:38.389Z,10.60
2022-10-01T00:44:38.419Z,10.60
2022-10-01T00:45:38.510Z,10.59
2022-10-01T00:46:38.355Z,10.60
2022-10-01T00:47:38.345Z,10.61
2022-10-01T00:48:38.341Z,10.60
2022-10-01T00:49:38.320Z,10.61
2022-10-01T00:50:38.353Z,10.61
2022-10-01T00:51:38.302Z,10.61
2022-10-01T00:52:38.293Z,10.61
2022-10-01T00:53:38.274Z,10.60
2022-10-01T00:54:38.274Z,10.57
2022-10-01T00:55:38.273Z,10.60
2022-10-01T00:56:38.273Z,10.57
2022-10-01T00:57:38.232Z,10.60
2022-10-01T00:58:38.224Z,10.61
2022-10-01T00:59:38.212Z,10.61
2022-10-01T01:00:38.208Z,10.63
2022-10-01T01:01:38.348Z,10.60
2022-10-01T01:02:38.276Z,10.61
2022-10-01T01:03:38.174Z,10.59
2022-10-01T01:04:38.176Z,10.57
2022-10-01T01:05:38.145Z,10.59
2022-10-01T01:06:38.151Z,10.59
2022-10-01T01:07:38.124Z,10.59
2022-10-01T01:08:38.162Z,10.60
2022-10-01T01:09:38.123Z,10.59
2022-10-01T05:01:03.029Z,10.26
2022-10-01T05:02:03.953Z,10.26
2022-10-01T05:03:03.935Z,10.23
2022-10-01T05:04:08.132Z,10.25
2022-10-01T05:05:03.910Z,10.23
2022-10-01T05:06:03.943Z,10.23
2022-10-01T05:07:03.880Z,10.26
2022-10-01T05:08:03.870Z,10.26
2022-10-01T05:09:04.108Z,10.25
2022-10-01T05:10:03.872Z,10.25
2022-10-01T05:11:03.805Z,10.26
2022-10-01T05:12:03.792Z,10.23
2022-10-01T05:13:03.766Z,10.23
2022-10-01T05:14:03.768Z,10.23
2022-10-01T05:15:03.759Z,10.23
2022-10-01T05:16:03.919Z,10.23
2022-10-01T05:17:03.715Z,10.25
2022-10-01T05:18:03.713Z,10.23
2022-10-01T05:19:03.710Z,10.23
2022-10-01T05:20:03.689Z,10.23
2022-10-01T05:21:03.673Z,10.22
2022-10-01T05:22:03.667Z,10.20
2022-10-01T05:23:03.650Z,10.20
2022-10-01T05:24:03.697Z,10.20
2022-10-01T05:25:03.629Z,10.20
2022-10-01T05:26:03.619Z,10.19
2022-10-01T05:27:03.614Z,10.19
2022-10-01T05:28:03.688Z,10.19
2022-10-01T05:29:03.593Z,10.19
2022-10-01T05:30:03.598Z,10.19
2022-10-01T05:31:03.690Z,10.20
2022-10-01T05:32:03.628Z,10.19
2022-10-01T05:33:09.630Z,10.17
2022-10-01T05:34:03.553Z,10.19
2022-10-01T05:35:03.525Z,10.20
2022-10-01T05:36:03.525Z,10.19
2022-10-01T05:37:03.522Z,10.22
2022-10-01T05:38:03.492Z,10.22
2022-10-01T05:39:03.501Z,10.23
2022-10-01T05:40:03.482Z,10.22
2022-10-01T05:41:03.458Z,10.22
2022-10-01T05:42:06.408Z,10.22
2022-10-01T05:43:03.444Z,10.23
2022-10-01T05:44:03.432Z,10.22
2022-10-01T05:45:03.438Z,10.20
2022-10-01T05:46:03.498Z,10.20
2022-10-01T05:47:03.387Z,10.20
2022-10-01T05:48:03.413Z,10.20
2022-10-01T05:49:03.373Z,10.23
2022-10-01T05:50:03.375Z,10.20
2022-10-01T05:51:03.354Z,10.22
2022-10-01T05:52:03.348Z,10.22
2022-10-01T05:53:03.330Z,10.20
2022-10-01T05:54:03.350Z,10.23
2022-10-01T05:55:03.332Z,10.25
2022-10-01T05:56:03.322Z,10.26
2022-10-01T05:57:03.286Z,10.25
2022-10-01T05:58:03.282Z,10.25
2022-10-01T05:59:03.262Z,10.25
2022-10-01T06:00:03.262Z,10.28
2022-10-01T06:01:03.240Z,10.25
2022-10-01T06:02:03.398Z,10.23
2022-10-01T06:03:03.350Z,10.23
2022-10-01T06:04:03.273Z,10.25
2022-10-01T06:05:03.204Z,10.26
2022-10-01T06:06:03.192Z,10.25
2022-10-01T06:07:03.195Z,10.25
2022-10-01T06:08:03.166Z,10.25
2022-10-01T06:09:03.153Z,10.25
2022-10-01T06:10:03.169Z,10.23
2022-10-01T06:11:03.139Z,10.25
2022-10-01T06:12:03.130Z,10.25
2022-10-01T06:13:03.112Z,10.23
2022-10-01T06:14:03.101Z,10.25
2022-10-01T06:15:03.098Z,10.25
2022-10-01T06:16:03.170Z,10.22
2022-10-01T06:17:03.085Z,10.23
2022-10-01T06:18:03.065Z,10.25
2022-10-01T06:19:03.048Z,10.25
2022-10-01T06:20:03.042Z,10.25
2022-10-01T06:21:03.046Z,10.25
2022-10-01T06:22:03.026Z,10.25
2022-10-01T06:23:03.012Z,10.26
2022-10-01T06:24:02.999Z,10.25
2022-10-01T06:25:02.996Z,10.23
2022-10-01T06:26:02.985Z,10.22
2022-10-01T06:27:02.975Z,10.22
2022-10-01T06:28:02.979Z,10.25
2022-10-01T06:29:02.938Z,10.25
2022-10-01T06:30:02.950Z,10.25
2022-10-01T06:31:02.931Z,10.26
2022-10-01T06:32:02.939Z,10.26
2022-10-01T06:33:02.910Z,10.26
2022-10-01T06:34:02.888Z,10.25
2022-10-01T06:35:02.886Z,10.25
2022-10-01T06:36:02.883Z,10.23
2022-10-01T06:37:02.867Z,10.23
2022-10-01T06:38:02.857Z,10.25
2022-10-01T06:39:02.842Z,10.25
2022-10-01T06:40:02.824Z,10.25
2022-10-01T06:41:02.807Z,10.25
2022-10-01T06:42:02.802Z,10.28
2022-10-01T06:43:02.791Z,10.25
2022-10-01T06:44:02.804Z,10.25
2022-10-01T06:45:02.773Z,10.26
2022-10-01T06:46:03.033Z,10.28
2022-10-01T06:47:02.745Z,10.28
2022-10-01T06:48:02.826Z,10.30
2022-10-01T06:49:02.720Z,10.31
2022-10-01T06:50:02.720Z,10.31
2022-10-01T06:51:02.727Z,10.33
2022-10-01T06:52:02.693Z,10.33
2022-10-01T06:53:02.687Z,10.34
2022-10-01T06:54:02.687Z,10.34
2022-10-01T06:55:02.663Z,10.34
2022-10-01T06:56:02.645Z,10.34
2022-10-01T06:57:02.648Z,10.37
2022-10-01T06:58:02.654Z,10.35
2022-10-01T06:59:02.615Z,10.34
2022-10-01T07:00:02.617Z,10.34
2022-10-01T07:01:02.692Z,10.34
2022-10-01T07:02:02.609Z,10.35
2022-10-01T07:03:02.585Z,10.34
2022-10-01T07:04:02.588Z,10.33
2022-10-01T07:05:02.564Z,10.33
2022-10-01T07:06:02.545Z,10.34
2022-10-01T07:07:02.529Z,10.31
2022-10-01T07:08:02.522Z,10.33
2022-10-01T07:09:02.512Z,10.31
2022-10-01T07:10:02.519Z,10.34
2022-10-01T07:11:02.493Z,10.34
2022-10-01T07:12:02.477Z,10.34
2022-10-01T07:13:02.464Z,10.35
2022-10-01T07:14:02.451Z,10.35
2022-10-01T07:15:02.441Z,10.34
2022-10-01T07:16:02.520Z,10.34
2022-10-01T07:17:02.436Z,10.37
2022-10-01T07:18:02.412Z,10.35
2022-10-01T07:19:02.412Z,10.40
2022-10-01T07:20:02.392Z,10.40
2022-10-01T07:21:02.376Z,10.40
2022-10-01T07:22:02.378Z,10.37
2022-10-01T07:23:02.362Z,10.40
2022-10-01T07:24:02.350Z,10.41
2022-10-01T07:25:02.339Z,10.41
2022-10-01T07:26:02.321Z,10.40
2022-10-01T07:27:07.099Z,10.40
2022-10-01T07:28:02.361Z,10.41
2022-10-01T07:29:02.290Z,10.40
2022-10-01T07:30:02.285Z,10.38
2022-10-01T07:31:02.280Z,10.40
2022-10-01T07:32:02.359Z,10.37
2022-10-01T07:33:02.265Z,10.35
2022-10-01T07:34:02.230Z,10.38
2022-10-01T07:35:02.230Z,10.38
2022-10-01T07:36:02.231Z,10.40
2022-10-01T07:37:02.201Z,10.41
2022-10-01T07:38:02.214Z,10.41
2022-10-01T07:39:02.188Z,10.42
2022-10-01T07:40:06.671Z,10.41
2022-10-01T07:41:02.167Z,10.42
2022-10-01T07:42:02.147Z,10.42
2022-10-01T07:43:02.143Z,10.42
2022-10-01T07:44:02.175Z,10.44
2022-10-01T07:45:02.118Z,10.48
2022-10-01T07:46:02.243Z,10.49
2022-10-01T07:47:02.096Z,10.51
2022-10-01T07:48:02.082Z,10.49
2022-10-01T07:49:02.077Z,10.49
2022-10-01T07:50:02.098Z,10.48
2022-10-01T07:51:02.058Z,10.48
2022-10-01T07:52:02.044Z,10.48
2022-10-01T07:53:02.036Z,10.49
2022-10-01T07:54:02.022Z,10.48
2022-10-01T07:55:02.029Z,10.49
2022-10-01T07:56:02.009Z,10.49
2022-10-01T07:57:01.993Z,10.51
2022-10-01T07:58:01.977Z,10.51
2022-10-01T07:59:01.973Z,10.49
2022-10-01T08:00:01.949Z,10.48
2022-10-01T08:01:02.040Z,10.49
2022-10-01T08:02:01.984Z,10.48
2022-10-01T08:03:01.935Z,10.49
2022-10-01T08:04:01.916Z,10.49
2022-10-01T08:05:01.929Z,10.49
2022-10-01T08:06:01.921Z,10.51
2022-10-01T08:07:01.884Z,10.51
2022-10-01T08:08:01.874Z,10.49
2022-10-01T08:09:01.860Z,10.49
2022-10-01T08:10:01.873Z,10.48
2022-10-01T08:11:01.844Z,10.49
2022-10-01T08:12:01.822Z,10.49
2022-10-01T08:13:01.817Z,10.49
2022-10-01T08:14:01.813Z,10.49
2022-10-01T08:15:01.798Z,10.48
2022-10-01T08:16:01.810Z,10.48
2022-10-01T08:17:01.887Z,10.46
2022-10-01T08:18:01.756Z,10.48
2022-10-01T08:19:01.755Z,10.49
2022-10-01T08:20:01.738Z,10.51
2022-10-01T08:21:01.731Z,10.48
2022-10-01T08:22:01.744Z,10.49
2022-10-01T08:23:01.705Z,10.48
2022-10-01T08:24:01.691Z,10.51
2022-10-01T08:25:01.686Z,10.53
2022-10-01T08:26:01.668Z,10.53
2022-10-01T08:27:01.678Z,10.51
2022-10-01T08:28:01.680Z,10.54
2022-10-01T08:29:01.643Z,10.54
2022-10-01T08:30:01.627Z,10.56
2022-10-01T08:31:01.617Z,10.57
2022-10-01T08:32:01.673Z,10.56
2022-10-01T08:33:01.607Z,10.57
2022-10-01T08:34:01.586Z,10.57
2022-10-01T08:35:01.604Z,10.57
2022-10-01T08:36:01.563Z,10.57
2022-10-01T08:37:01.556Z,10.56
2022-10-01T08:38:01.547Z,10.57
2022-10-01T08:39:01.542Z,10.57
2022-10-01T08:40:01.539Z,10.57
2022-10-01T08:41:01.562Z,10.59
2022-10-01T08:42:01.497Z,10.59
2022-10-01T08:43:01.501Z,10.60
2022-10-01T08:44:01.503Z,10.61
2022-10-01T08:45:01.477Z,10.63
2022-10-01T08:46:01.546Z,10.63
2022-10-01T08:47:01.459Z,10.64
2022-10-01T08:48:01.441Z,10.67
2022-10-01T08:49:01.436Z,10.64
2022-10-01T08:50:01.447Z,10.67
2022-10-01T08:51:01.424Z,10.67
2022-10-01T08:52:01.390Z,10.67
2022-10-01T08:53:01.389Z,10.67
2022-10-01T08:54:01.369Z,10.68
2022-10-01T08:55:01.379Z,10.69
2022-10-01T08:56:01.360Z,10.69
2022-10-01T08:57:01.351Z,10.69
2022-10-01T08:58:01.331Z,10.71
2022-10-01T08:59:01.323Z,10.72
2022-10-01T09:00:01.315Z,10.71
2022-10-01T09:01:01.376Z,10.74
2022-10-01T09:02:01.284Z,10.74
2022-10-01T09:03:01.289Z,10.75
2022-10-01T09:04:01.299Z,10.75
2022-10-01T09:05:02.311Z,10.75
2022-10-01T09:06:01.256Z,10.75
2022-10-01T09:07:01.234Z,10.76
2022-10-01T09:08:01.253Z,10.75
2022-10-01T09:09:01.215Z,10.74
2022-10-01T09:10:01.200Z,10.78
2022-10-01T09:11:01.199Z,10.79
2022-10-01T09:12:01.187Z,10.79
2022-10-01T09:13:01.167Z,10.81
2022-10-01T09:14:01.183Z,10.79
2022-10-01T09:15:01.144Z,10.81
2022-10-01T09:16:01.200Z,10.81
2022-10-01T09:17:01.151Z,10.81
2022-10-01T09:18:01.110Z,10.82
2022-10-01T09:19:01.126Z,10.82
2022-10-01T09:20:01.090Z,10.84
2022-10-01T09:21:01.099Z,10.84
2022-10-01T09:22:01.070Z,10.82
2022-10-01T09:23:01.071Z,10.86
2022-10-01T09:24:01.080Z,10.89
2022-10-01T09:25:01.047Z,10.89
2022-10-01T09:26:01.044Z,10.90
2022-10-01T09:27:01.025Z,10.92
2022-10-01T09:28:01.036Z,10.92
2022-10-01T09:29:01.092Z,10.90
2022-10-01T09:30:00.996Z,10.90
2022-10-01T09:31:00.997Z,10.92
2022-10-01T09:32:01.012Z,10.96
2022-10-01T09:33:00.954Z,10.96
2022-10-01T09:34:00.956Z,10.97
2022-10-01T09:35:04.433Z,10.97
2022-10-01T09:36:00.965Z,10.96
2022-10-01T09:37:00.922Z,10.97
2022-10-01T09:38:00.923Z,10.96
2022-10-01T09:39:00.903Z,10.99
2022-10-01T09:40:00.871Z,11.00
2022-10-01T09:41:00.882Z,10.99
2022-10-01T09:42:00.865Z,11.00
2022-10-01T09:43:00.847Z,11.02
2022-10-01T09:44:00.836Z,11.02
2022-10-01T09:45:00.831Z,10.99
2022-10-01T09:46:00.835Z,11.00
2022-10-01T09:47:00.822Z,11.00
2022-10-01T09:48:00.784Z,10.99
2022-10-01T09:49:00.791Z,11.02
2022-10-01T09:50:00.769Z,11.00
2022-10-01T09:51:00.776Z,11.00
2022-10-01T09:52:00.745Z,11.02
2022-10-01T09:53:00.753Z,11.02
2022-10-01T09:54:00.729Z,11.04
2022-10-01T09:55:00.733Z,11.04
2022-10-01T09:56:00.713Z,11.05
2022-10-01T09:57:00.687Z,11.05
2022-10-01T09:58:00.682Z,11.05
2022-10-01T09:59:00.688Z,11.07
2022-10-01T10:00:00.657Z,11.07
2022-10-01T10:01:00.675Z,11.08
2022-10-01T10:02:00.734Z,11.10
2022-10-01T10:03:00.804Z,11.12
2022-10-01T10:04:00.613Z,11.10
2022-10-01T10:05:00.621Z,11.12
2022-10-01T10:06:00.598Z,11.10
2022-10-01T10:07:00.592Z,11.11
2022-10-01T10:08:00.566Z,11.12
2022-10-01T10:09:00.603Z,11.14
2022-10-01T10:10:00.789Z,11.15
2022-10-01T10:11:00.748Z,11.15
2022-10-01T10:12:00.531Z,11.15
2022-10-01T10:13:00.519Z,11.15
2022-10-01T10:14:00.510Z,11.15
2022-10-01T10:15:00.524Z,11.17
2022-10-01T10:16:00.677Z,11.15
2022-10-01T10:17:00.471Z,11.19
2022-10-01T10:18:00.457Z,11.19
2022-10-01T10:19:00.455Z,11.22
2022-10-01T10:20:00.436Z,11.23
2022-10-01T10:21:00.440Z,11.25
2022-10-01T10:22:00.437Z,11.25
2022-10-01T10:23:00.411Z,11.26
2022-10-01T10:24:00.395Z,11.26
2022-10-01T10:25:00.389Z,11.27
2022-10-01T10:26:00.371Z,11.30
2022-10-01T10:27:00.382Z,11.27
2022-10-01T10:28:00.402Z,11.26
2022-10-01T10:29:00.348Z,11.27
2022-10-01T10:30:00.349Z,11.23
2022-10-01T10:31:00.476Z,11.25
2022-10-01T10:32:00.471Z,11.23
2022-10-01T10:33:00.300Z,11.25
2022-10-01T10:34:00.306Z,11.25
2022-10-01T10:35:03.109Z,11.26
2022-10-01T10:36:01.994Z,11.25
2022-10-01T10:37:00.269Z,11.25
2022-10-01T10:38:00.242Z,11.26
2022-10-01T10:39:00.243Z,11.26
2022-10-01T10:40:00.228Z,11.27
2022-10-01T10:41:00.220Z,11.27
2022-10-01T10:42:00.251Z,11.29
2022-10-01T10:43:00.232Z,11.29
2022-10-01T10:44:00.179Z,11.33
2022-10-01T10:45:00.188Z,11.35
2022-10-01T10:46:00.257Z,11.35
2022-10-01T10:47:00.149Z,11.37
2022-10-01T10:48:00.187Z,11.36
2022-10-01T10:49:00.137Z,11.36
2022-10-01T10:50:00.170Z,11.37
2022-10-01T10:51:00.131Z,11.37
2022-10-01T10:52:00.103Z,11.40
2022-10-01T10:53:00.109Z,11.40
2022-10-01T10:54:00.125Z,11.43
2022-10-01T10:55:00.064Z,11.41
2022-10-01T10:56:00.047Z,11.44
2022-10-01T10:57:00.071Z,11.44
2022-10-01T10:58:03.291Z,11.45
2022-10-01T10:59:00.025Z,11.50
2022-10-01T11:00:00.037Z,11.51
2022-10-01T11:01:00.114Z,11.54
2022-10-01T11:02:00.128Z,11.59
2022-10-01T11:03:00.661Z,11.63
2022-10-01T11:03:59.961Z,11.66
2022-10-01T11:04:59.984Z,11.68
2022-10-01T11:05:59.944Z,11.70
2022-10-01T11:06:59.931Z,11.73
2022-10-01T11:07:59.929Z,11.78
2022-10-01T11:08:59.911Z,11.81
2022-10-01T11:09:59.918Z,11.81
2022-10-01T11:10:59.896Z,11.86
2022-10-01T11:11:59.880Z,11.87
2022-10-01T11:12:59.866Z,11.90
2022-10-01T11:13:59.861Z,11.90
2022-10-01T11:14:59.846Z,11.94
2022-10-01T11:15:59.923Z,11.95
2022-10-01T11:16:59.823Z,11.99
2022-10-01T11:17:59.819Z,12.02
2022-10-01T11:18:59.802Z,12.02
2022-10-01T11:19:59.788Z,12.03
2022-10-01T11:20:59.785Z,12.03
2022-10-01T11:21:59.797Z,12.03
2022-10-01T11:22:59.758Z,12.04
2022-10-01T11:23:59.750Z,12.04
2022-10-01T11:24:59.745Z,12.06
2022-10-01T11:25:59.737Z,12.06
2022-10-01T11:26:59.712Z,12.06
2022-10-01T11:27:59.766Z,12.06
2022-10-01T11:28:59.824Z,12.09
2022-10-01T11:29:59.685Z,12.09
2022-10-01T11:30:59.677Z,12.10
2022-10-01T11:31:59.662Z,12.12
2022-10-01T11:33:54.698Z,12.12
2022-10-01T11:34:55.649Z,12.10
2022-10-01T11:35:55.641Z,12.12
2022-10-01T11:36:55.693Z,12.10
2022-10-01T11:37:55.623Z,12.10
2022-10-01T11:38:55.631Z,12.12
2022-10-01T11:39:55.595Z,12.12
2022-10-01T11:40:55.599Z,12.10
2022-10-01T11:41:55.590Z,12.10
2022-10-01T11:42:55.563Z,12.10
2022-10-01T11:43:55.588Z,12.09
2022-10-01T11:45:00.428Z,12.09
2022-10-01T11:45:55.739Z,12.07
2022-10-01T11:46:55.602Z,12.09
2022-10-01T11:47:55.513Z,12.09
2022-10-01T11:48:55.515Z,12.10
2022-10-01T11:49:55.522Z,12.10
2022-10-01T11:50:55.494Z,12.09
2022-10-01T11:51:55.468Z,12.10
2022-10-01T11:52:55.465Z,12.12
2022-10-01T11:53:55.452Z,12.10
2022-10-01T11:54:56.364Z,12.15
2022-10-01T11:55:55.462Z,12.13
2022-10-01T11:56:55.413Z,12.15
2022-10-01T11:57:55.402Z,12.17
2022-10-01T11:58:55.403Z,12.20
2022-10-01T11:59:55.388Z,12.22
2022-10-01T12:00:55.373Z,12.22
2022-10-01T12:01:55.398Z,12.24
2022-10-01T12:02:55.346Z,12.25
2022-10-01T12:03:55.340Z,12.27
2022-10-01T12:04:55.338Z,12.29
2022-10-01T12:05:55.390Z,12.32
2022-10-01T12:06:55.305Z,12.36
2022-10-01T12:07:55.308Z,12.40
2022-10-01T12:08:55.289Z,12.42
2022-10-01T12:09:55.276Z,12.45
2022-10-01T12:10:55.267Z,12.46
2022-10-01T12:11:55.287Z,12.47
2022-10-01T12:12:55.239Z,12.50
2022-10-01T12:13:55.239Z,12.50
2022-10-01T12:14:55.249Z,12.53
2022-10-01T12:15:55.284Z,12.55
2022-10-01T12:16:55.217Z,12.57
2022-10-01T12:17:55.197Z,12.58
2022-10-01T12:18:55.180Z,12.58
2022-10-01T12:19:55.177Z,12.62
2022-10-01T12:20:55.173Z,12.64
2022-10-01T12:21:55.149Z,12.61
2022-10-01T12:22:55.148Z,12.64
2022-10-01T12:23:55.147Z,12.67
2022-10-01T12:24:55.111Z,12.68
2022-10-01T12:25:55.104Z,12.72
2022-10-01T12:26:55.087Z,12.73
2022-10-01T12:27:55.147Z,12.73
2022-10-01T12:28:59.924Z,12.75
2022-10-01T12:29:55.065Z,12.78
2022-10-01T12:30:55.086Z,12.80
2022-10-01T12:31:55.040Z,12.80
2022-10-01T12:32:55.035Z,12.80
2022-10-01T12:33:55.081Z,12.82
2022-10-01T12:34:55.005Z,12.85
2022-10-01T12:35:54.992Z,12.85
2022-10-01T12:36:54.980Z,12.86
2022-10-01T12:37:54.970Z,12.87
2022-10-01T12:38:54.954Z,12.94
2022-10-01T12:39:54.973Z,12.91
2022-10-01T12:40:54.935Z,12.93
2022-10-01T12:41:54.928Z,12.97
2022-10-01T12:42:54.924Z,13.00
2022-10-01T12:43:54.934Z,13.04
2022-10-01T12:44:54.906Z,13.05
2022-10-01T12:45:54.921Z,13.08
2022-10-01T12:46:54.875Z,13.11
2022-10-01T12:47:54.857Z,13.12
2022-10-01T12:48:54.855Z,13.12
2022-10-01T12:49:54.874Z,13.15
2022-10-01T12:50:54.830Z,13.16
2022-10-01T12:51:54.819Z,13.15
2022-10-01T12:52:54.807Z,13.13
2022-10-01T12:53:54.798Z,13.16
2022-10-01T12:54:54.786Z,13.19
2022-10-01T12:55:54.789Z,13.23
2022-10-01T12:56:54.767Z,13.28
2022-10-01T12:57:54.760Z,13.30
2022-10-01T12:58:54.748Z,13.30
2022-10-01T12:59:54.743Z,13.35
2022-10-01T13:00:54.762Z,13.37
2022-10-01T13:01:54.807Z,13.39
2022-10-01T13:02:54.693Z,13.39
2022-10-01T13:03:54.706Z,13.41
2022-10-01T13:04:54.671Z,13.46
2022-10-01T13:05:54.667Z,13.46
2022-10-01T13:06:54.650Z,13.49
2022-10-01T13:07:54.673Z,13.49
2022-10-01T13:08:54.642Z,13.50
2022-10-01T13:09:54.622Z,13.50
2022-10-01T13:10:54.608Z,13.54
2022-10-01T13:11:54.606Z,13.59
2022-10-01T13:12:54.603Z,13.62
2022-10-01T13:13:54.586Z,13.67
2022-10-01T13:14:54.588Z,13.71
2022-10-01T13:15:54.619Z,13.77
2022-10-01T13:16:54.548Z,13.81
2022-10-01T13:17:54.557Z,13.83
2022-10-01T13:18:54.537Z,13.87
2022-10-01T13:19:54.522Z,13.95
2022-10-01T13:20:54.513Z,13.99
2022-10-01T13:21:54.496Z,14.03
2022-10-01T13:22:54.482Z,14.11
2022-10-01T13:23:54.473Z,14.15
2022-10-01T13:24:54.477Z,14.18
2022-10-01T13:25:54.454Z,14.26
2022-10-01T13:26:54.441Z,14.32
2022-10-01T13:27:54.460Z,14.35
2022-10-01T13:28:54.415Z,14.41
2022-10-01T13:29:54.432Z,14.47
2022-10-01T13:30:54.416Z,14.54
2022-10-01T13:31:54.391Z,14.60
2022-10-01T13:32:54.376Z,14.66
2022-10-01T13:33:54.366Z,14.70
2022-10-01T13:34:54.345Z,14.81
2022-10-01T13:35:54.368Z,14.88
2022-10-01T13:36:54.329Z,14.89
2022-10-01T13:37:54.327Z,14.94
2022-10-01T13:38:54.312Z,14.99
2022-10-01T13:39:54.292Z,15.00
2022-10-01T13:40:54.286Z,15.00
2022-10-01T13:41:54.290Z,15.03
2022-10-01T13:42:54.258Z,15.02
2022-10-01T13:43:54.274Z,15.03
2022-10-01T13:44:54.247Z,15.06
2022-10-01T13:45:54.267Z,15.07
2022-10-01T13:46:54.228Z,15.07
2022-10-01T13:47:54.217Z,15.09
2022-10-01T13:48:54.221Z,15.15
2022-10-01T13:49:54.191Z,15.18
2022-10-01T13:50:54.177Z,15.25
2022-10-01T13:51:54.206Z,15.29
2022-10-01T13:52:54.173Z,15.37
2022-10-01T13:53:54.145Z,15.39
2022-10-01T13:54:54.140Z,15.44
2022-10-01T13:55:54.133Z,15.51
2022-10-01T13:56:54.104Z,15.58
2022-10-01T13:57:54.121Z,15.62
2022-10-01T13:58:54.087Z,15.68
2022-10-01T13:59:54.085Z,15.75
2022-10-01T14:00:54.071Z,15.82
2022-10-01T14:01:54.089Z,15.86
2022-10-01T14:02:54.118Z,15.90
2022-10-01T14:03:54.049Z,16.01
2022-10-01T14:04:54.015Z,16.08
2022-10-01T14:05:54.019Z,16.09
2022-10-01T14:06:54.011Z,16.08
2022-10-01T14:07:54.002Z,16.09
2022-10-01T14:08:54.002Z,16.08
2022-10-01T14:09:53.994Z,16.09
2022-10-01T14:10:53.955Z,16.08
2022-10-01T14:11:53.960Z,16.01
2022-10-01T14:12:53.939Z,15.98
2022-10-01T14:13:53.940Z,16.00
2022-10-01T14:14:53.964Z,15.97
2022-10-01T14:15:54.071Z,15.92
2022-10-01T14:16:53.984Z,15.90
2022-10-01T14:17:53.939Z,15.86
2022-10-01T14:18:53.941Z,15.82
2022-10-01T14:19:53.896Z,15.79
2022-10-01T14:20:53.876Z,15.77
2022-10-01T14:21:53.899Z,15.72
2022-10-01T14:22:53.907Z,15.68
2022-10-01T14:23:53.841Z,15.65
2022-10-01T14:24:53.840Z,15.64
2022-10-01T14:25:54.015Z,15.59
2022-10-01T14:26:53.792Z,15.58
2022-10-01T14:27:53.862Z,15.59
2022-10-01T14:28:53.786Z,15.57
2022-10-01T14:29:53.778Z,15.55
2022-10-01T14:30:53.850Z,15.52
2022-10-01T14:31:53.806Z,15.55
2022-10-01T14:32:53.720Z,15.59
2022-10-01T14:33:53.755Z,15.67
2022-10-01T14:34:53.722Z,15.73
2022-10-01T14:35:53.723Z,15.75
2022-10-01T14:36:53.677Z,15.77
2022-10-01T14:37:53.681Z,15.83
2022-10-01T14:38:53.679Z,15.88
2022-10-01T14:39:53.654Z,15.92
2022-10-01T14:40:53.653Z,15.94
2022-10-01T14:41:53.659Z,15.97
2022-10-01T14:42:53.645Z,15.98
2022-10-01T14:43:53.618Z,15.98
2022-10-01T14:44:53.620Z,16.00
2022-10-01T14:45:53.588Z,16.04
2022-10-01T14:46:53.623Z,16.09
2022-10-01T14:47:53.637Z,16.10
2022-10-01T14:48:53.539Z,16.17
2022-10-01T14:49:53.550Z,16.17
2022-10-01T14:50:53.575Z,16.20
2022-10-01T14:51:53.567Z,16.21
2022-10-01T14:52:53.549Z,16.21
2022-10-01T14:53:53.511Z,16.23
2022-10-01T14:54:53.494Z,16.23
2022-10-01T14:55:53.500Z,16.21
2022-10-01T14:56:53.468Z,16.21
2022-10-01T14:57:53.439Z,16.26
2022-10-01T14:58:53.440Z,16.28
2022-10-01T14:59:53.427Z,16.33
2022-10-01T15:00:53.418Z,16.35
2022-10-01T15:01:53.397Z,16.38
2022-10-01T15:02:53.385Z,16.43
2022-10-01T15:03:53.439Z,16.51
2022-10-01T15:04:53.435Z,16.56
2022-10-01T15:05:53.405Z,16.65
2022-10-01T15:06:53.362Z,16.69
2022-10-01T15:07:53.341Z,16.72
2022-10-01T15:08:53.343Z,16.75
2022-10-01T15:09:53.337Z,16.84
2022-10-01T15:10:53.304Z,16.90
2022-10-01T15:11:53.343Z,16.99
2022-10-01T15:12:53.275Z,17.02
2022-10-01T15:13:53.281Z,17.12
2022-10-01T15:14:53.283Z,17.12
2022-10-01T15:15:53.355Z,17.12
2022-10-01T15:16:53.285Z,17.06
2022-10-01T15:17:53.236Z,17.06
2022-10-01T15:18:53.222Z,17.04
2022-10-01T15:19:53.205Z,17.02
2022-10-01T15:20:54.130Z,17.02
2022-10-01T15:21:53.214Z,17.01
2022-10-01T15:22:53.205Z,17.01
2022-10-01T15:23:53.173Z,16.99
2022-10-01T15:24:53.150Z,16.96
2022-10-01T15:25:53.156Z,16.89
2022-10-01T15:26:53.168Z,16.86
2022-10-01T15:27:53.179Z,16.83
2022-10-01T15:28:53.117Z,16.76
2022-10-01T15:29:56.346Z,16.76
2022-10-01T15:30:53.113Z,16.74
2022-10-01T15:31:53.177Z,16.71
2022-10-01T15:32:53.083Z,16.71
2022-10-01T15:33:53.054Z,16.69
2022-10-01T15:34:53.047Z,16.64
2022-10-01T15:35:53.044Z,16.61
2022-10-01T15:36:53.023Z,16.58
2022-10-01T15:37:53.027Z,16.54
2022-10-01T15:38:53.026Z,16.53
2022-10-01T15:39:52.991Z,16.51
2022-10-01T15:40:52.986Z,16.49
2022-10-01T15:41:52.967Z,16.46
2022-10-01T15:42:52.983Z,16.41
2022-10-01T15:43:53.021Z,16.41
2022-10-01T15:44:52.942Z,16.39
2022-10-01T15:45:53.001Z,16.39
2022-10-01T15:46:52.918Z,16.36
2022-10-01T15:47:52.914Z,16.33
2022-10-01T15:48:52.913Z,16.32
2022-10-01T15:49:52.904Z,16.32
2022-10-01T15:50:52.863Z,16.31
2022-10-01T15:51:55.689Z,16.28
2022-10-01T15:52:52.867Z,16.24
2022-10-01T15:53:52.839Z,16.21
2022-10-01T15:54:52.871Z,16.26
2022-10-01T15:55:52.822Z,16.36
2022-10-01T15:56:52.825Z,16.41
2022-10-01T15:57:52.792Z,16.39
2022-10-01T15:58:52.802Z,16.39
2022-10-01T15:59:52.766Z,16.38
2022-10-01T16:00:52.789Z,16.38
2022-10-01T16:01:52.801Z,16.33
2022-10-01T16:02:52.738Z,16.29
2022-10-01T16:03:52.732Z,16.35
2022-10-01T16:04:52.711Z,16.35
2022-10-01T16:05:52.706Z,16.31
2022-10-01T16:06:52.721Z,16.24
2022-10-01T16:07:52.686Z,16.23
2022-10-01T16:08:52.675Z,16.17
2022-10-01T16:09:52.673Z,16.15
2022-10-01T16:10:52.650Z,16.13
2022-10-01T16:11:52.650Z,16.10
2022-10-01T16:12:52.649Z,16.09
2022-10-01T16:13:52.636Z,16.04
2022-10-01T16:14:52.616Z,16.04
2022-10-01T16:15:52.606Z,16.01
2022-10-01T16:16:52.613Z,16.01
2022-10-01T16:17:52.575Z,16.00
2022-10-01T16:18:52.604Z,15.98
2022-10-01T16:19:52.557Z,15.95
2022-10-01T16:20:52.543Z,15.94
2022-10-01T16:21:52.527Z,15.91
2022-10-01T16:22:52.547Z,15.90
2022-10-01T16:23:52.516Z,15.88
2022-10-01T16:24:52.517Z,15.84
2022-10-01T16:25:52.564Z,15.84
2022-10-01T16:26:52.490Z,15.82
2022-10-01T16:27:52.539Z,15.79
2022-10-01T16:28:52.501Z,15.77
2022-10-01T16:29:52.465Z,15.76
2022-10-01T16:30:52.462Z,15.73
2022-10-01T16:31:52.476Z,15.70
2022-10-01T16:32:52.410Z,15.70
2022-10-01T16:33:52.398Z,15.67
2022-10-01T16:34:52.386Z,15.65
2022-10-01T16:35:52.395Z,15.64
2022-10-01T16:36:52.372Z,15.64
2022-10-01T16:37:52.356Z,15.61
2022-10-01T16:38:52.349Z,15.58
2022-10-01T16:39:52.332Z,15.58
2022-10-01T16:40:52.347Z,15.58
2022-10-01T16:42:11.959Z,15.57
2022-10-01T16:42:52.330Z,15.55
2022-10-01T16:43:58.323Z,15.55